Time;durP1;ratioP1;P1;durP2;ratioP2;P2;SDS_P1;SDS_P2;PMS_P1;PMS_P2;Temp;Humidity;BMP_temperature;BMP_pressure;BME280_temperature;BME280_humidity;BME280_pressure;Samples;Min_cycle;Max_cycle;Signal;HPM_P1;HPM_P2
2022/02/03 00:05:01;;;;;;;5.43;4.00;;;;;;;3.66;78.91;93292.44;2070735;69;20147;-75
2022/02/03 00:07:36;;;;;;;4.85;3.63;;;;;;;3.69;78.70;93294.13;2071239;69;20148;-68
2022/02/03 00:24:13;;;;;;;2.95;1.60;;;;;;;3.74;77.38;93279.28;2065286;69;20631;-76
2022/02/03 00:26:50;;;;;;;2.40;1.80;;;;;;;3.70;78.10;93278.16;2068530;69;20157;-75
2022/02/03 00:29:30;;;;;;;4.00;2.80;;;;;;;3.44;79.43;93279.94;2068646;69;20156;-74
2022/02/03 00:32:10;;;;;;;5.13;3.78;;;;;;;3.47;79.08;93284.38;2065678;69;20180;-70
2022/02/03 00:35:21;;;;;;;5.55;3.00;;;;;;;3.53;79.20;93281.47;2068468;69;20147;-69
2022/02/03 00:37:47;;;;;;;4.28;2.83;;;;;;;3.61;78.39;93290.56;2068363;69;20145;-70
2022/02/03 00:48:40;;;;;;;4.18;3.10;;;;;;;3.33;79.42;93296.94;2068494;69;20137;-72
2022/02/03 00:51:06;;;;;;;6.13;4.70;;;;;;;3.39;79.92;93305.91;2068239;69;20206;-75
2022/02/03 00:53:34;;;;;;;5.85;4.55;;;;;;;3.50;79.30;93305.56;2068563;69;20164;-71
2022/02/03 00:56:04;;;;;;;5.18;4.05;;;;;;;3.42;79.24;93302.00;2068453;69;20151;-68
2022/02/03 00:58:32;;;;;;;5.97;4.18;;;;;;;3.55;78.14;93310.22;2065217;69;20176;-71
2022/02/03 01:00:59;;;;;;;7.40;4.80;;;;;;;3.55;78.20;93306.69;2061975;69;20141;-68
2022/02/03 01:03:28;;;;;;;5.55;4.50;;;;;;;3.59;78.37;93303.56;2068239;69;20157;-69
2022/02/03 01:05:57;;;;;;;6.13;4.20;;;;;;;3.58;78.71;93308.38;2064869;69;20168;-69
2022/02/03 01:08:26;;;;;;;5.72;4.35;;;;;;;3.61;79.03;93310.06;2068062;69;20228;-68
2022/02/03 01:11:04;;;;;;;5.47;4.40;;;;;;;3.60;78.49;93305.78;2064442;69;20198;-69
2022/02/03 01:16:09;;;;;;;5.10;4.18;;;;;;;3.61;78.17;93303.75;2067543;69;20160;-70
2022/02/03 01:19:07;;;;;;;6.10;4.13;;;;;;;3.65;77.08;93301.34;2067838;69;20274;-69
2022/02/03 01:21:45;;;;;;;6.25;4.45;;;;;;;3.61;78.47;93298.91;2068188;69;20149;-69
2022/02/03 01:45:52;;;;;;;6.28;4.78;;;;;;;3.70;78.67;93322.72;2068217;69;20203;-70
2022/02/03 01:48:40;;;;;;;8.05;5.00;;;;;;;3.74;78.48;93318.28;2068291;69;20137;-69
2022/02/03 01:53:57;;;;;;;9.27;6.35;;;;;;;3.72;78.86;93320.88;2068165;69;20293;-71
2022/02/03 01:56:35;;;;;;;10.30;6.65;;;;;;;3.68;79.21;93320.47;2068051;69;20186;-70
2022/02/03 01:59:03;;;;;;;9.50;7.03;;;;;;;3.67;78.99;93323.84;2067996;69;20160;-71
2022/02/03 02:01:30;;;;;;;9.25;6.40;;;;;;;3.70;78.62;93319.94;2067840;69;20247;-70
2022/02/03 02:04:46;;;;;;;11.57;8.23;;;;;;;3.73;78.65;93314.00;2068130;69;20168;-73
2022/02/03 02:07:43;;;;;;;13.23;9.23;;;;;;;3.77;78.46;93316.44;2063858;69;20160;-70
2022/02/03 02:11:09;;;;;;;10.73;7.82;;;;;;;3.81;78.12;93316.81;2068003;69;20149;-71
2022/02/03 02:43:45;;;;;;;13.90;8.75;;;;;;;3.43;80.19;93281.22;2068005;69;20239;-70
2022/02/03 02:46:30;;;;;;;14.13;8.80;;;;;;;3.55;79.84;93281.63;2067878;69;20153;-70
2022/02/03 02:49:15;;;;;;;12.40;8.48;;;;;;;3.63;78.77;93274.06;2065930;69;20155;-71
2022/02/03 02:51:57;;;;;;;11.77;8.52;;;;;;;3.50;79.64;93271.41;2067840;69;20224;-73
2022/02/03 02:55:52;;;;;;;14.18;9.70;;;;;;;3.66;78.29;93264.59;2068082;69;20167;-72
2022/02/03 03:31:56;;;;;;;16.52;10.95;;;;;;;3.54;79.21;93269.75;2067702;69;20144;-70
2022/02/03 03:36:56;;;;;;;18.92;12.10;;;;;;;3.57;78.23;93273.47;2067672;69;20190;-71
2022/02/03 03:39:30;;;;;;;20.27;11.85;;;;;;;3.54;77.29;93266.22;2067736;69;20261;-73
2022/02/03 03:42:01;;;;;;;18.33;12.38;;;;;;;3.54;78.53;93269.03;2067710;69;20151;-71
2022/02/03 03:44:33;;;;;;;18.52;12.63;;;;;;;3.60;78.68;93263.28;2067884;69;20532;-70
2022/02/03 03:47:03;;;;;;;20.67;12.68;;;;;;;3.57;78.96;93273.47;2067982;69;20149;-75
2022/02/03 03:49:28;;;;;;;18.13;11.88;;;;;;;3.47;79.25;93270.47;2067992;69;20149;-73
2022/02/03 03:52:01;;;;;;;17.98;11.70;;;;;;;3.49;79.17;93267.88;2068332;69;20208;-70
2022/02/03 04:44:48;;;;;;;10.63;6.72;;;;;;;3.43;77.97;93250.59;2068429;69;20149;-78
2022/02/03 04:54:11;;;;;;;12.13;5.25;;;;;;;3.49;77.79;93226.13;2068120;69;20568;-69
2022/02/03 05:07:56;;;;;;;14.80;8.65;;;;;;;3.42;78.34;93226.09;2068024;69;20227;-69
2022/02/03 05:25:57;;;;;;;22.75;12.18;;;;;;;3.15;78.93;93250.66;2068176;69;20665;-75
2022/02/03 05:49:05;;;;;;;21.23;12.55;;;;;;;3.09;78.58;93219.50;2068362;69;20168;-74
2022/02/03 06:02:46;;;;;;;12.75;8.25;;;;;;;3.06;77.15;93222.06;2068193;69;20141;-69
2022/02/03 06:05:22;;;;;;;17.73;11.30;;;;;;;2.96;77.95;93221.09;2067845;69;20145;-70
2022/02/03 06:08:15;;;;;;;23.55;15.75;;;;;;;2.97;78.21;93227.41;2067883;69;20148;-76
2022/02/03 06:13:53;;;;;;;20.73;12.90;;;;;;;2.83;78.31;93223.25;2065743;69;20151;-74
2022/02/03 06:16:35;;;;;;;14.75;9.73;;;;;;;2.73;78.37;93223.75;2068344;69;20493;-73
2022/02/03 06:22:08;;;;;;;16.23;10.30;;;;;;;2.55;79.06;93230.31;2068504;69;20175;-71
2022/02/03 06:24:46;;;;;;;14.70;9.00;;;;;;;2.66;79.20;93235.59;2065068;69;20160;-68
2022/02/03 06:27:26;;;;;;;13.88;8.70;;;;;;;2.69;78.30;93228.16;2068329;69;20605;-68
2022/02/03 06:29:56;;;;;;;12.50;7.28;;;;;;;2.62;78.59;93228.88;2068059;69;20616;-68
2022/02/03 06:32:22;;;;;;;8.75;5.85;;;;;;;2.69;78.27;93231.69;2068337;69;20152;-69
2022/02/03 06:34:48;;;;;;;10.82;6.20;;;;;;;2.66;78.61;93238.38;2068470;69;20173;-73
2022/02/03 06:37:14;;;;;;;18.58;9.95;;;;;;;2.70;78.00;93240.78;2068405;69;20177;-74
2022/02/03 06:39:39;;;;;;;19.42;11.10;;;;;;;2.59;78.79;93236.25;2068287;69;20232;-77
2022/02/03 06:42:07;;;;;;;23.27;11.02;;;;;;;2.70;78.41;93233.19;2068326;69;20168;-79
2022/02/03 06:44:41;;;;;;;18.17;10.70;;;;;;;2.72;78.17;93241.00;2065018;69;20524;-78
2022/02/03 06:50:05;;;;;;;26.48;15.43;;;;;;;2.42;79.09;93236.69;2068281;69;20224;-76
2022/02/03 06:53:06;;;;;;;26.13;14.93;;;;;;;2.54;79.87;93235.13;2068430;69;20144;-77
2022/02/03 06:55:39;;;;;;;22.35;14.80;;;;;;;2.65;79.70;93245.19;2067642;69;20136;-75
2022/02/03 06:58:56;;;;;;;26.17;15.23;;;;;;;2.79;79.04;93257.72;2068350;69;20156;-74
2022/02/03 07:01:06;;;;;;;30.70;14.65;;;;;;;2.83;78.90;93245.50;2066327;69;20153;-76
2022/02/03 07:03:37;;;;;;;29.00;15.68;;;;;;;2.89;78.80;93246.84;2068477;69;20141;-76
2022/02/03 07:06:03;;;;;;;32.00;17.38;;;;;;;2.85;79.14;93243.66;2068205;69;20147;-77
2022/02/03 07:08:30;;;;;;;28.85;16.13;;;;;;;2.94;79.06;93240.38;2068306;69;20216;-78
2022/02/03 07:10:56;;;;;;;34.47;19.02;;;;;;;2.89;79.32;93249.63;2068305;69;20629;-75
2022/02/03 07:13:23;;;;;;;32.28;17.15;;;;;;;2.80;79.67;93248.09;2068307;69;20169;-72
2022/02/03 07:15:49;;;;;;;32.47;17.08;;;;;;;2.85;80.36;93249.22;2068319;69;20144;-76
2022/02/03 07:18:17;;;;;;;30.77;16.70;;;;;;;3.11;78.88;93241.94;2068389;69;20171;-80
2022/02/03 07:20:43;;;;;;;27.77;16.30;;;;;;;3.14;79.00;93247.13;2068187;69;20269;-77
2022/02/03 07:23:09;;;;;;;33.28;17.63;;;;;;;3.18;78.86;93255.13;2069383;69;20162;-77
2022/02/03 07:25:36;;;;;;;35.97;19.23;;;;;;;3.14;79.51;93261.06;2069560;69;20168;-75
2022/02/03 07:28:03;;;;;;;33.03;18.25;;;;;;;3.13;79.74;93267.91;2066159;69;20156;-70
2022/02/03 07:30:29;;;;;;;35.33;19.13;;;;;;;3.12;79.50;93258.09;2069438;69;20284;-68
2022/02/03 07:32:58;;;;;;;37.97;18.90;;;;;;;3.29;78.98;93261.09;2069543;69;20228;-69
2022/02/03 07:35:24;;;;;;;39.42;19.90;;;;;;;3.31;79.26;93269.66;2069370;69;20164;-73
2022/02/03 07:37:51;;;;;;;33.90;17.60;;;;;;;3.38;78.18;93265.41;2069360;69;20140;-74
2022/02/03 07:40:18;;;;;;;30.45;17.38;;;;;;;3.50;77.49;93263.06;2069284;69;20163;-77
2022/02/03 07:42:49;;;;;;;35.65;19.00;;;;;;;3.47;77.95;93259.31;2069337;69;20153;-78
2022/02/03 07:45:17;;;;;;;34.25;19.63;;;;;;;3.46;77.93;93257.84;2069411;69;20152;-77
2022/02/03 07:47:47;;;;;;;38.15;19.70;;;;;;;3.43;78.23;93256.16;2069330;69;20152;-71
2022/02/03 07:50:14;;;;;;;32.58;17.88;;;;;;;3.19;79.19;93257.34;2069167;69;20145;-74
2022/02/03 07:52:40;;;;;;;33.63;18.92;;;;;;;3.22;80.13;93250.72;2069654;69;20232;-80
2022/02/03 07:55:06;;;;;;;38.15;20.52;;;;;;;3.11;80.32;93251.00;2069483;69;20160;-70
2022/02/03 07:57:33;;;;;;;40.88;20.15;;;;;;;3.25;79.93;93254.41;2072029;69;20228;-69
2022/02/03 07:59:58;;;;;;;42.47;21.73;;;;;;;3.15;80.17;93253.44;2070598;69;20156;-69
2022/02/03 08:02:24;;;;;;;41.80;21.27;;;;;;;3.31;80.11;93261.31;2069639;69;20133;-69
2022/02/03 08:04:51;;;;;;;40.05;20.80;;;;;;;3.43;79.41;93260.97;2069099;69;20129;-69
2022/02/03 08:07:19;;;;;;;37.47;19.77;;;;;;;3.44;79.19;93260.44;2069244;69;20128;-70
2022/02/03 08:09:57;;;;;;;44.53;22.02;;;;;;;3.31;79.69;93250.19;2069269;69;20280;-70
2022/02/03 08:12:28;;;;;;;43.10;21.75;;;;;;;3.49;79.06;93253.22;2069238;69;20465;-70
2022/02/03 08:14:54;;;;;;;43.05;22.20;;;;;;;3.50;78.88;93255.44;2069393;69;20151;-76
2022/02/03 08:17:24;;;;;;;42.08;21.13;;;;;;;3.60;79.00;93258.44;2069252;69;20236;-79
2022/02/03 08:22:29;;;;;;;43.45;22.42;;;;;;;3.62;78.21;93246.75;2069352;69;20244;-74
2022/02/03 08:25:10;;;;;;;44.28;22.65;;;;;;;3.61;78.61;93246.00;2069247;69;20136;-76
2022/02/03 08:30:46;;;;;;;42.22;21.70;;;;;;;3.82;78.66;93249.41;2069377;69;20141;-74
2022/02/03 08:33:18;;;;;;;44.58;22.65;;;;;;;3.87;79.33;93247.00;2066288;69;20164;-81
2022/02/03 08:35:50;;;;;;;40.53;21.58;;;;;;;3.97;78.26;93245.91;2065613;69;20160;-79
2022/02/03 08:38:27;;;;;;;45.40;23.20;;;;;;;4.03;78.63;93249.28;2068733;69;20163;-76
2022/02/03 08:43:20;;;;;;;39.10;21.00;;;;;;;3.39;80.02;93250.22;2065360;69;20235;-73
2022/02/03 08:45:46;;;;;;;40.78;21.80;;;;;;;3.70;79.55;93261.44;2065328;69;20172;-80
2022/02/03 08:48:14;;;;;;;43.90;21.90;;;;;;;3.79;79.86;93260.91;2065359;69;20172;-78
2022/02/03 08:50:40;;;;;;;44.72;22.63;;;;;;;3.98;79.30;93258.53;2068532;69;20640;-79
2022/02/03 08:53:15;;;;;;;39.15;20.73;;;;;;;4.24;78.49;93253.94;2068905;69;20270;-78
2022/02/03 09:36:33;;;;;;;18.20;10.80;;;;;;;5.39;75.91;93211.88;2068474;69;20172;-73
2022/02/03 09:55:55;;;;;;;11.95;7.78;;;;;;;5.93;72.56;93190.03;2068653;69;20148;-69
2022/02/03 09:58:24;;;;;;;11.65;7.47;;;;;;;6.09;70.86;93188.59;2068431;69;20148;-70
2022/02/03 10:03:35;;;;;;;12.98;8.50;;;;;;;5.95;71.10;93198.56;2068545;69;20611;-69
2022/02/03 10:06:07;;;;;;;13.55;8.73;;;;;;;5.95;70.81;93199.31;2067868;69;20732;-69
2022/02/03 10:08:33;;;;;;;;;;;;;;;6.39;71.22;93189.69;2064992;69;20129;-70
2022/02/03 10:11:21;;;;;;;21.48;13.43;;;;;;;6.32;71.16;93191.97;2065256;69;20055;-71
2022/02/03 10:13:48;;;;;;;10.48;7.05;;;;;;;6.16;71.66;93170.28;2065219;69;20137;-70
2022/02/03 10:16:16;;;;;;;9.60;6.80;;;;;;;6.56;71.35;93175.72;2065164;69;20295;-70
2022/02/03 10:18:42;;;;;;;16.70;8.93;;;;;;;6.59;70.29;93163.38;2065124;69;20164;-75
2022/02/03 10:21:13;;;;;;;9.23;6.30;;;;;;;7.07;70.28;93157.47;2065050;69;20494;-73
2022/02/03 10:24:00;;;;;;;10.43;6.00;;;;;;;7.09;69.29;93160.44;2065059;69;20140;-76
2022/02/03 10:26:33;;;;;;;10.38;6.10;;;;;;;7.76;68.24;93156.59;2065085;69;20244;-70
2022/02/03 10:28:59;;;;;;;11.20;8.07;;;;;;;8.25;67.52;93163.91;2065152;69;20149;-72
2022/02/03 10:31:32;;;;;;;13.85;8.57;;;;;;;7.97;65.82;93159.69;2065087;69;20198;-73
2022/02/03 10:34:06;;;;;;;12.15;7.18;;;;;;;8.73;66.99;93151.38;2064511;69;20179;-74
2022/02/03 10:36:49;;;;;;;12.32;7.72;;;;;;;9.21;66.74;93142.97;2065028;69;20624;-76
2022/02/03 10:40:29;;;;;;;9.05;6.38;;;;;;;9.35;61.54;93115.91;2064745;69;20167;-70
2022/02/03 10:44:10;;;;;;;11.75;6.60;;;;;;;9.87;61.52;93111.78;2057249;69;20326;-69
2022/02/03 10:49:10;;;;;;;9.73;6.90;;;;;;;9.59;59.22;93099.28;2054386;69;20169;-73
2022/02/03 11:10:49;;;;;;;;;;;;;;;;;;;;;
2022/02/03 11:13:04;;;;;;;7.85;5.80;;;;;;;14.22;48.57;93065.78;2057859;69;20146;-76
2022/02/03 11:15:33;;;;;;;6.80;5.90;;;;;;;13.69;47.93;93060.09;2055021;69;20130;-77
2022/02/03 11:18:00;;;;;;;8.15;6.50;;;;;;;13.42;49.23;93044.53;2061548;69;20145;-76
2022/02/03 11:20:29;;;;;;;6.78;5.70;;;;;;;14.73;47.06;93046.53;2065375;69;20199;-72
2022/02/03 11:23:18;;;;;;;6.18;5.22;;;;;;;13.77;46.88;93048.50;2065230;69;20156;-72
2022/02/03 11:29:31;;;;;;;5.93;5.32;;;;;;;14.88;45.44;93039.47;2064951;69;20141;-72
2022/02/03 11:34:27;;;;;;;7.70;5.97;;;;;;;15.13;45.93;93032.91;2064933;69;20172;-72
2022/02/03 12:00:54;;;;;;;7.20;5.32;;;;;;;13.27;48.66;92982.88;2064932;69;20157;-75
2022/02/03 12:15:43;;;;;;;9.77;7.43;;;;;;;12.39;49.18;92972.25;2068796;69;20140;-69
2022/02/03 12:26:39;;;;;;;10.48;7.95;;;;;;;11.78;51.72;92942.50;2058921;69;20172;-71
2022/02/03 12:29:13;;;;;;;12.00;8.23;;;;;;;11.61;52.32;92929.50;2068666;69;20148;-73
2022/02/03 12:32:28;;;;;;;12.45;7.70;;;;;;;11.58;52.40;92922.97;2065295;69;20524;-75
2022/02/03 12:40:02;;;;;;;15.43;11.60;;;;;;;11.52;53.35;92936.72;2068641;69;20167;-70
2022/02/03 12:45:23;;;;;;;14.48;10.57;;;;;;;11.08;54.51;92929.78;2068663;69;20248;-75
2022/02/03 12:47:56;;;;;;;14.73;10.15;;;;;;;10.36;55.81;92926.63;2065329;69;20145;-73
2022/02/03 12:50:32;;;;;;;15.77;10.82;;;;;;;9.87;57.62;92923.38;2068477;69;20171;-79
2022/02/03 12:52:59;;;;;;;17.02;12.02;;;;;;;10.23;56.91;92899.75;2068632;69;20347;-74
2022/02/03 12:55:39;;;;;;;15.52;10.43;;;;;;;10.46;56.13;92887.16;2065202;69;20603;-70
2022/02/03 12:58:25;;;;;;;17.27;10.73;;;;;;;10.62;55.75;92896.59;2068721;69;20223;-71
2022/02/03 13:01:02;;;;;;;15.35;10.95;;;;;;;10.42;56.52;92888.34;2068581;69;20136;-71
2022/02/03 13:03:34;;;;;;;16.25;11.13;;;;;;;9.95;57.72;92883.81;2068658;69;20153;-70
2022/02/03 13:06:11;;;;;;;15.02;10.57;;;;;;;10.71;56.27;92880.97;2068351;69;20153;-70
2022/02/03 13:08:48;;;;;;;19.27;12.15;;;;;;;10.59;55.82;92875.31;2068694;69;20145;-70
2022/02/03 13:11:23;;;;;;;16.70;11.30;;;;;;;10.51;55.58;92855.09;2068594;69;20152;-69
2022/02/03 13:16:36;;;;;;;15.85;10.98;;;;;;;9.82;58.79;92857.72;2065169;69;20164;-71
2022/02/03 13:26:55;;;;;;;14.93;10.43;;;;;;;9.65;58.49;92875.56;2068908;69;20232;-71
2022/02/03 13:29:44;;;;;;;16.27;11.55;;;;;;;9.61;59.23;92868.94;2068537;69;20133;-70
2022/02/03 13:32:13;;;;;;;29.17;20.40;;;;;;;9.07;60.53;92830.19;2068145;69;20156;-71
2022/02/03 13:34:53;;;;;;;21.83;14.10;;;;;;;9.61;59.27;92818.34;2068729;69;20220;-71
2022/02/03 13:37:34;;;;;;;20.20;14.30;;;;;;;9.92;57.93;92807.75;2068672;69;20210;-70
2022/02/03 13:40:09;;;;;;;23.95;15.90;;;;;;;9.83;57.90;92817.00;2068470;69;20137;-71
2022/02/03 13:42:36;;;;;;;17.65;12.75;;;;;;;9.55;58.87;92824.31;2065187;69;20140;-70
2022/02/03 13:45:09;;;;;;;18.42;13.35;;;;;;;9.92;58.41;92838.69;2068414;69;20161;-71
2022/02/03 13:47:36;;;;;;;19.55;11.20;;;;;;;9.55;59.07;92832.00;2068503;69;20145;-72
2022/02/03 13:50:15;;;;;;;17.35;11.55;;;;;;;9.38;59.41;92824.56;2068320;69;20140;-71
2022/02/03 14:15:04;;;;;;;19.60;12.82;;;;;;;9.40;59.49;92796.63;2068522;69;20141;-78
2022/02/03 14:18:19;;;;;;;19.33;12.70;;;;;;;9.42;59.14;92768.63;2068560;69;20168;-73
2022/02/03 14:28:06;;;;;;;22.98;15.13;;;;;;;8.47;63.95;92791.72;2068398;69;20167;-71
2022/02/03 14:30:37;;;;;;;20.55;13.38;;;;;;;9.27;61.06;92772.59;2068255;69;20280;-72
2022/02/03 14:33:02;;;;;;;18.38;12.40;;;;;;;9.45;60.21;92764.63;2068162;69;20271;-73
2022/02/03 14:35:29;;;;;;;17.90;12.18;;;;;;;9.38;60.19;92752.25;2068251;69;20231;-70
2022/02/03 14:42:52;;;;;;;23.30;13.80;;;;;;;8.52;63.27;92753.44;2068233;69;20190;-71
2022/02/03 14:45:18;;;;;;;24.20;14.60;;;;;;;8.35;63.48;92754.38;2068555;69;20141;-69
2022/02/03 14:47:44;;;;;;;35.03;20.25;;;;;;;8.37;63.82;92771.38;2068143;69;20684;-71
2022/02/03 14:50:11;;;;;;;39.88;21.75;;;;;;;8.80;62.02;92779.94;2068133;69;20133;-72
2022/02/03 14:52:58;;;;;;;26.48;16.63;;;;;;;8.41;63.15;92785.69;2068357;69;20148;-72
2022/02/03 15:00:39;;;;;;;25.83;14.48;;;;;;;8.06;64.19;92762.88;2068207;69;20143;-71
2022/02/03 15:03:05;;;;;;;21.10;13.73;;;;;;;8.36;63.63;92762.22;2064698;69;20231;-70
2022/02/03 15:05:34;;;;;;;23.88;14.57;;;;;;;8.38;62.75;92759.59;2063601;69;20186;-73
2022/02/03 15:08:03;;;;;;;24.48;14.57;;;;;;;8.44;63.11;92750.84;2061434;69;20149;-71
2022/02/03 15:13:17;;;;;;;25.42;15.10;;;;;;;7.73;65.01;92715.72;2062106;69;20156;-70
2022/02/03 15:15:43;;;;;;;26.40;16.65;;;;;;;7.76;65.37;92731.34;2061888;69;20153;-72
2022/02/03 15:18:09;;;;;;;27.48;16.50;;;;;;;8.06;63.53;92718.75;2061426;69;20231;-72
2022/02/03 15:20:36;;;;;;;24.30;14.88;;;;;;;7.66;64.82;92713.81;2061375;69;20594;-71
2022/02/03 15:23:02;;;;;;;35.80;17.92;;;;;;;7.21;66.19;92727.41;2061288;69;20186;-69
2022/02/03 15:25:29;;;;;;;30.23;17.88;;;;;;;7.27;67.20;92752.31;2061062;69;20169;-70
2022/02/03 15:27:55;;;;;;;28.25;17.48;;;;;;;7.54;66.04;92749.38;2061425;69;20660;-70
2022/02/03 15:30:21;;;;;;;33.67;18.15;;;;;;;7.41;65.90;92747.00;2060962;69;20240;-70
2022/02/03 15:32:48;;;;;;;28.60;17.35;;;;;;;7.49;65.60;92716.78;2061210;69;20157;-71
2022/02/03 15:35:41;;;;;;;24.50;15.43;;;;;;;7.44;66.07;92712.22;2061221;69;20141;-71
2022/02/03 15:38:03;;;;;;;24.58;15.82;;;;;;;7.41;65.84;92705.72;2061011;69;20614;-70
2022/02/03 15:40:30;;;;;;;30.85;17.55;;;;;;;7.38;65.46;92704.84;2060833;69;20153;-69
2022/02/03 15:45:31;;;;;;;33.75;19.52;;;;;;;6.88;68.09;92718.69;2061294;69;20160;-74
2022/02/03 15:48:01;;;;;;;28.45;17.63;;;;;;;6.94;67.16;92718.38;2061455;69;20669;-77
2022/02/03 16:17:16;;;;;;;37.97;23.63;;;;;;;6.21;68.25;92708.78;2067948;69;20167;-73
2022/02/03 16:20:04;;;;;;;34.50;21.70;;;;;;;6.34;68.24;92699.25;2068153;69;20610;-72
2022/02/03 16:54:54;;;;;;;21.70;12.25;;;;;;;5.49;69.73;92735.25;2068336;69;20279;-70
2022/02/03 16:57:24;;;;;;;23.25;13.70;;;;;;;5.40;70.01;92731.06;2068295;69;20646;-69
2022/02/03 16:59:56;;;;;;;22.00;13.50;;;;;;;5.50;70.15;92731.16;2068620;69;20152;-69
2022/02/03 17:02:24;;;;;;;;;;;;;;;5.43;70.33;92718.03;2069691;69;20144;-70
2022/02/03 17:04:51;;;;;;;28.67;16.13;;;;;;;5.40;70.17;92728.28;2068249;69;20051;-69
2022/02/03 17:07:17;;;;;;;27.88;14.30;;;;;;;5.10;71.79;92740.53;2067333;69;20678;-70
2022/02/03 17:09:43;;;;;;;28.33;16.90;;;;;;;4.98;71.80;92725.59;2067708;69;20605;-68
2022/02/03 17:12:09;;;;;;;29.35;18.17;;;;;;;5.06;71.57;92737.41;2067775;69;20160;-69
2022/02/03 17:14:37;;;;;;;29.10;17.77;;;;;;;5.10;70.88;92732.91;2068090;69;20161;-68
2022/02/03 17:17:03;;;;;;;30.50;18.73;;;;;;;5.15;70.26;92739.56;2064910;69;20665;-74
2022/02/03 17:19:29;;;;;;;32.88;17.27;;;;;;;5.16;70.24;92746.63;2071189;69;20156;-71
2022/02/03 17:21:55;;;;;;;26.67;16.30;;;;;;;5.13;70.48;92760.97;2071159;69;20547;-70
2022/02/03 17:24:24;;;;;;;26.42;14.20;;;;;;;4.99;71.34;92757.75;2068098;69;20148;-71
2022/02/03 17:29:24;;;;;;;44.92;25.63;;;;;;;4.96;71.49;92756.88;2071591;69;20266;-71
2022/02/03 17:31:59;;;;;;;45.25;28.10;;;;;;;5.06;70.21;92743.75;2071503;69;20183;-68
2022/02/03 18:07:44;;;;;;;16.80;10.43;;;;;;;4.93;73.73;92744.06;2071454;69;20148;-76
2022/02/03 18:53:16;;;;;;;17.40;10.50;;;;;;;4.43;75.90;92724.63;2071584;69;20137;-70
2022/02/03 19:01:05;;;;;;;16.98;9.07;;;;;;;4.52;74.58;92724.00;2070946;69;20183;-70
2022/02/03 20:10:50;;;;;;;28.13;15.98;;;;;;;3.92;74.48;92705.72;2071654;69;20179;-71
2022/02/03 20:13:16;;;;;;;25.42;13.63;;;;;;;3.75;76.03;92715.47;2070663;69;20159;-69
2022/02/03 20:15:43;;;;;;;18.17;9.95;;;;;;;3.75;75.21;92714.72;2070426;69;20257;-70
2022/02/03 20:18:14;;;;;;;10.77;5.78;;;;;;;3.62;76.78;92712.19;2070527;69;20247;-70
2022/02/03 20:20:41;;;;;;;26.23;12.38;;;;;;;3.66;75.96;92715.34;2070237;69;20163;-70
2022/02/03 20:23:11;;;;;;;28.88;14.10;;;;;;;3.58;74.58;92729.31;2070662;69;20175;-68
2022/02/03 20:25:39;;;;;;;25.50;13.80;;;;;;;3.56;75.75;92737.47;2070954;69;20195;-69
2022/02/03 20:28:06;;;;;;;23.70;12.93;;;;;;;3.61;74.15;92741.34;2070231;69;20160;-72
2022/02/03 20:30:32;;;;;;;20.77;12.43;;;;;;;3.56;73.69;92729.88;2067311;69;20638;-73
2022/02/03 20:32:58;;;;;;;24.52;13.88;;;;;;;3.49;74.83;92716.00;2070635;69;20179;-70
2022/02/03 20:35:23;;;;;;;27.38;17.10;;;;;;;3.32;74.29;92713.84;2070614;69;20148;-70
2022/02/03 20:37:49;;;;;;;29.38;15.50;;;;;;;3.34;75.20;92716.06;2071712;69;20139;-69
2022/02/03 20:40:15;;;;;;;25.02;15.32;;;;;;;3.33;76.19;92714.59;2072679;69;20592;-69
2022/02/03 20:42:41;;;;;;;27.35;15.13;;;;;;;3.39;75.31;92712.31;2072274;69;20172;-71
2022/02/03 20:45:08;;;;;;;23.88;14.63;;;;;;;3.28;75.31;92711.44;2071358;69;20171;-72
2022/02/03 20:47:34;;;;;;;24.30;13.88;;;;;;;3.22;75.42;92701.84;2071367;69;20131;-69
2022/02/03 20:50:02;;;;;;;25.98;14.45;;;;;;;3.35;75.03;92712.00;2071023;69;20141;-68
2022/02/03 20:52:27;;;;;;;22.65;12.82;;;;;;;3.32;74.69;92705.50;2071170;69;20259;-71
2022/02/03 20:54:53;;;;;;;19.35;11.85;;;;;;;3.46;74.38;92694.84;2071341;69;20156;-69
2022/02/03 20:57:19;;;;;;;13.45;7.50;;;;;;;3.41;74.37;92704.91;2071227;69;20152;-71
2022/02/03 21:00:51;;;;;;;16.20;10.50;;;;;;;2.91;76.72;92709.56;2071033;69;20180;-70
2022/02/03 21:05:10;;;;;;;20.30;13.10;;;;;;;2.84;76.47;92722.19;2070989;69;20136;-68
2022/02/03 21:07:36;;;;;;;19.98;11.73;;;;;;;2.74;77.07;92716.44;2070773;69;20152;-71
2022/02/03 21:10:06;;;;;;;23.88;11.75;;;;;;;2.95;76.49;92721.03;2070791;69;20615;-71
2022/02/03 21:12:32;;;;;;;19.00;11.40;;;;;;;3.11;74.88;92711.34;2070846;69;20290;-71
2022/02/03 21:14:58;;;;;;;24.75;11.93;;;;;;;2.89;76.60;92712.16;2071153;69;20256;-75
2022/02/03 21:17:30;;;;;;;21.88;13.13;;;;;;;2.65;77.38;92710.72;2071110;69;20688;-70
2022/02/03 21:20:04;;;;;;;18.75;11.07;;;;;;;2.87;76.38;92703.63;2070863;69;20147;-75
2022/02/03 21:22:29;;;;;;;11.90;6.70;;;;;;;3.03;75.61;92705.06;2071083;69;20156;-69
2022/02/03 21:25:01;;;;;;;11.30;7.32;;;;;;;3.03;75.78;92707.84;2071097;69;20147;-76
2022/02/03 21:27:29;;;;;;;14.80;8.77;;;;;;;2.98;75.44;92706.03;2070895;69;20197;-70
2022/02/03 21:29:55;;;;;;;14.43;9.43;;;;;;;2.83;76.48;92708.84;2070881;69;20241;-70
2022/02/03 21:32:21;;;;;;;16.00;9.63;;;;;;;2.84;75.42;92696.41;2067362;69;20936;-69
2022/02/03 21:34:51;;;;;;;15.35;9.52;;;;;;;2.62;76.19;92687.59;2070768;69;20187;-69
2022/02/03 21:37:17;;;;;;;17.00;8.88;;;;;;;2.76;75.31;92679.78;2070911;69;20187;-71
2022/02/03 21:39:42;;;;;;;17.08;9.90;;;;;;;2.76;75.78;92683.28;2067468;69;20151;-69
2022/02/03 21:42:09;;;;;;;14.18;8.52;;;;;;;2.89;75.05;92673.97;2070848;69;20242;-69
2022/02/03 21:44:34;;;;;;;14.23;8.00;;;;;;;2.69;75.91;92675.69;2071062;69;20281;-69
2022/02/03 21:47:00;;;;;;;14.73;9.77;;;;;;;2.52;76.75;92679.09;2067676;69;20263;-70
2022/02/03 21:49:25;;;;;;;14.73;8.27;;;;;;;2.66;76.58;92684.44;2070884;69;20156;-71
2022/02/03 21:51:54;;;;;;;18.50;8.40;;;;;;;2.85;75.52;92692.34;2071004;69;20140;-71
2022/02/03 21:54:20;;;;;;;16.60;7.82;;;;;;;2.86;74.75;92691.03;2071079;69;20154;-70
2022/02/03 21:56:48;;;;;;;13.70;8.27;;;;;;;2.70;75.22;92679.97;2070761;69;20147;-71
2022/02/03 21:59:15;;;;;;;13.82;7.88;;;;;;;2.80;75.28;92674.56;2070653;69;20155;-70
2022/02/03 22:01:42;;;;;;;10.68;6.32;;;;;;;2.86;76.51;92663.22;2067370;69;20160;-71
2022/02/03 22:04:08;;;;;;;11.30;6.88;;;;;;;2.66;77.24;92671.28;2070788;69;20168;-71
2022/02/03 22:06:34;;;;;;;11.18;7.18;;;;;;;2.78;76.35;92664.00;2070458;69;20155;-71
2022/02/03 22:08:59;;;;;;;10.40;6.47;;;;;;;2.76;76.25;92666.59;2071103;69;20163;-70
2022/02/03 22:11:25;;;;;;;9.70;6.10;;;;;;;2.79;75.67;92661.94;2070848;69;20151;-69
2022/02/03 22:13:51;;;;;;;8.85;5.10;;;;;;;2.83;76.20;92669.91;2070891;69;20152;-70
2022/02/03 22:16:22;;;;;;;6.00;4.32;;;;;;;2.90;76.99;92661.56;2070664;69;20560;-70
2022/02/03 22:18:48;;;;;;;10.52;6.22;;;;;;;2.59;77.54;92660.91;2070449;69;20305;-73
2022/02/03 22:49:42;;;;;;;4.32;2.75;;;;;;;3.11;77.45;92588.94;2071396;69;20194;-71
2022/02/03 22:52:08;;;;;;;3.67;2.70;;;;;;;3.24;77.59;92587.94;2071269;69;20160;-75
2022/02/03 22:54:34;;;;;;;5.00;2.65;;;;;;;3.30;77.33;92583.66;2071348;69;20147;-70
2022/02/03 22:56:59;;;;;;;2.35;1.90;;;;;;;3.30;77.09;92594.03;2071462;69;20661;-70
2022/02/03 23:02:08;;;;;;;6.43;4.20;;;;;;;3.04;77.55;92582.13;2067123;69;20148;-70
2022/02/03 23:04:35;;;;;;;4.68;3.17;;;;;;;3.17;76.22;92578.34;2071941;69;20543;-72
2022/02/03 23:07:20;;;;;;;3.50;2.53;;;;;;;3.21;76.02;92580.75;2071377;69;20175;-70
2022/02/03 23:12:28;;;;;;;6.13;3.35;;;;;;;2.89;76.92;92593.34;2071212;69;20149;-69
2022/02/03 23:17:52;;;;;;;4.72;2.83;;;;;;;2.80;76.17;92625.25;2067390;69;20615;-71
2022/02/03 23:20:23;;;;;;;7.20;4.88;;;;;;;2.31;78.03;92628.56;2067973;69;20238;-70
2022/02/03 23:22:50;;;;;;;5.80;4.30;;;;;;;2.64;76.32;92634.22;2068054;69;20716;-70
2022/02/03 23:25:19;;;;;;;8.07;4.65;;;;;;;2.58;75.74;92628.84;2071304;69;20595;-69
2022/02/03 23:30:18;;;;;;;10.40;4.45;;;;;;;2.41;75.75;92621.13;2071464;69;20214;-69
2022/02/03 23:32:44;;;;;;;7.25;4.97;;;;;;;2.24;77.71;92615.41;2071435;69;20168;-70
2022/02/03 23:35:20;;;;;;;6.93;4.68;;;;;;;2.40;76.28;92608.53;2070819;69;20171;-72